createdAt,value
2023-01-11T00:00:55.311Z,6.63
2023-01-11T00:03:21.931Z,6.37
2023-01-11T00:05:48.538Z,7.33
2023-01-11T00:08:15.125Z,6.57
2023-01-11T00:10:42.042Z,5.53
2023-01-11T00:13:08.954Z,10.80
2023-01-11T00:15:38.124Z,11.23
2023-01-11T00:18:07.805Z,5.00
2023-01-11T00:20:34.557Z,5.20
2023-01-11T00:23:01.329Z,7.33
2023-01-11T00:25:27.940Z,7.83
2023-01-11T00:27:55.256Z,6.23
2023-01-11T00:30:22.078Z,6.83
2023-01-11T00:32:48.819Z,5.13
2023-01-11T00:35:15.950Z,6.10
2023-01-11T00:37:42.773Z,9.47
2023-01-11T00:40:09.905Z,9.80
2023-01-11T00:42:55.150Z,5.27
2023-01-11T00:45:43.409Z,8.60
2023-01-11T00:48:10.825Z,7.23
2023-01-11T00:50:39.572Z,7.17
2023-01-11T00:53:10.550Z,6.13
2023-01-11T00:55:37.213Z,7.93
2023-01-11T00:58:06.565Z,7.57
2023-01-11T01:00:33.199Z,5.50
2023-01-11T01:02:59.819Z,16.20
2023-01-11T01:05:26.859Z,6.87
2023-01-11T01:07:53.503Z,7.43
2023-01-11T01:10:20.545Z,9.90
2023-01-11T01:13:06.073Z,8.23
2023-01-11T01:15:33.053Z,9.67
2023-01-11T01:17:59.982Z,5.57
2023-01-11T01:20:27.239Z,8.60
2023-01-11T01:22:53.967Z,6.63
2023-01-11T01:25:20.588Z,5.90
2023-01-11T01:27:47.254Z,6.00
2023-01-11T01:30:14.221Z,7.43
2023-01-11T01:32:40.837Z,7.17
2023-01-11T01:35:08.032Z,5.57
2023-01-11T01:37:34.653Z,7.43
2023-01-11T01:40:01.459Z,4.83
2023-01-11T01:42:28.141Z,9.73
2023-01-11T01:45:02.474Z,4.67
2023-01-11T01:47:32.625Z,6.27
2023-01-11T01:50:02.025Z,5.57
2023-01-11T01:52:29.457Z,7.67
2023-01-11T01:54:58.049Z,5.60
2023-01-11T01:57:27.584Z,6.50
2023-01-11T01:59:55.984Z,7.47
2023-01-11T02:02:24.401Z,5.50
2023-01-11T02:04:51.474Z,8.37
2023-01-11T02:07:20.217Z,7.37
2023-01-11T02:09:51.574Z,6.30
2023-01-11T02:12:18.566Z,6.27
2023-01-11T02:14:45.718Z,10.07
2023-01-11T02:17:12.942Z,5.70
2023-01-11T02:19:51.893Z,6.83
2023-01-11T02:22:31.040Z,6.67
2023-01-11T02:25:00.528Z,7.37
2023-01-11T02:28:01.387Z,6.43
2023-01-11T02:30:50.034Z,5.87
2023-01-11T02:33:28.482Z,6.30
2023-01-11T02:36:08.761Z,6.27
2023-01-11T02:38:59.442Z,7.57
2023-01-11T02:41:55.941Z,6.00
2023-01-11T02:44:54.557Z,6.93
2023-01-11T02:47:42.526Z,5.57
2023-01-11T02:50:32.976Z,8.73
2023-01-11T02:53:26.791Z,6.37
2023-01-11T02:55:57.641Z,7.30
2023-01-11T02:58:27.609Z,11.47
2023-01-11T03:00:55.914Z,5.33
2023-01-11T03:03:24.898Z,8.10
2023-01-11T03:05:54.354Z,7.33
2023-01-11T03:08:58.060Z,8.60
2023-01-11T03:11:49.387Z,5.87
2023-01-11T03:14:24.943Z,6.90
2023-01-11T03:17:18.865Z,8.37
2023-01-11T03:19:48.433Z,4.47
2023-01-11T03:22:29.248Z,7.50
2023-01-11T03:24:59.612Z,6.77
2023-01-11T03:27:55.938Z,7.17
2023-01-11T03:30:29.237Z,6.67
2023-01-11T03:33:10.655Z,4.55
2023-01-11T03:35:48.263Z,5.47
2023-01-11T03:38:31.383Z,4.57
2023-01-11T03:41:02.228Z,4.50
2023-01-11T03:43:30.024Z,8.77
2023-01-11T03:46:04.906Z,6.07
2023-01-11T03:49:01.515Z,3.33
2023-01-11T03:51:30.141Z,9.67
2023-01-11T03:53:58.754Z,4.90
2023-01-11T03:56:32.722Z,6.43
2023-01-11T03:58:59.317Z,7.07
2023-01-11T04:01:26.372Z,6.13
2023-01-11T04:03:52.997Z,3.27
2023-01-11T04:06:19.722Z,7.20
2023-01-11T04:08:46.316Z,9.70
2023-01-11T04:11:12.979Z,4.97
2023-01-11T04:13:39.609Z,5.67
2023-01-11T04:16:06.720Z,4.53
2023-01-11T04:18:33.418Z,9.37
2023-01-11T04:21:00.097Z,4.60
2023-01-11T04:23:26.906Z,4.70
2023-01-11T04:25:53.529Z,5.37
2023-01-11T04:28:20.238Z,5.13
2023-01-11T04:30:48.186Z,4.80
2023-01-11T04:33:14.885Z,4.27
2023-01-11T04:35:42.297Z,5.67
2023-01-11T04:38:08.973Z,5.93
2023-01-11T04:40:35.598Z,7.20
2023-01-11T04:43:02.490Z,6.20
2023-01-11T04:45:30.453Z,5.47
2023-01-11T04:47:57.736Z,5.07
2023-01-11T04:50:25.471Z,4.63
2023-01-11T04:52:52.369Z,5.07
2023-01-11T04:55:19.601Z,4.60
2023-01-11T04:57:46.446Z,5.03
2023-01-11T05:00:15.856Z,4.20
2023-01-11T05:02:42.517Z,2.73
2023-01-11T05:05:13.267Z,5.07
2023-01-11T05:07:39.925Z,6.53
2023-01-11T05:10:06.903Z,5.60
2023-01-11T05:12:33.495Z,4.40
2023-01-11T05:15:00.121Z,4.10
2023-01-11T05:17:26.700Z,6.73
2023-01-11T05:19:53.408Z,3.57
2023-01-11T05:22:19.980Z,6.17
2023-01-11T05:24:46.632Z,5.83
2023-01-11T05:27:13.221Z,7.23
2023-01-11T05:29:39.817Z,3.30
2023-01-11T05:32:06.450Z,5.07
2023-01-11T05:34:33.134Z,7.17
2023-01-11T05:36:59.776Z,3.97
2023-01-11T05:39:26.399Z,3.97
2023-01-11T05:41:52.946Z,5.73
2023-01-11T05:44:38.405Z,4.30
2023-01-11T05:47:05.055Z,3.60
2023-01-11T05:49:31.637Z,4.37
2023-01-11T05:51:58.255Z,5.57
2023-01-11T05:54:24.872Z,3.80
2023-01-11T05:56:51.489Z,4.17
2023-01-11T05:59:18.076Z,7.27
2023-01-11T06:01:44.696Z,4.70
2023-01-11T06:04:11.536Z,3.10
2023-01-11T06:06:38.275Z,4.00
2023-01-11T06:09:04.985Z,3.77
2023-01-11T06:11:31.587Z,2.37
2023-01-11T06:13:58.149Z,4.33
2023-01-11T06:16:24.868Z,5.97
2023-01-11T06:18:53.254Z,2.80
2023-01-11T06:21:20.561Z,5.07
2023-01-11T06:23:50.686Z,3.27
2023-01-11T06:26:19.653Z,4.47
2023-01-11T06:28:46.876Z,3.53
2023-01-11T06:31:16.066Z,4.83
2023-01-11T06:33:43.701Z,4.30
2023-01-11T06:36:12.256Z,4.60
2023-01-11T06:38:39.039Z,4.73
2023-01-11T06:41:08.402Z,3.03
2023-01-11T06:43:36.503Z,8.20
2023-01-11T06:46:03.226Z,5.27
2023-01-11T06:48:29.897Z,3.77
2023-01-11T06:50:57.981Z,6.53
2023-01-11T06:53:28.319Z,2.80
2023-01-11T06:55:57.119Z,4.60
2023-01-11T06:58:24.663Z,4.07
2023-01-11T07:00:52.747Z,4.90
2023-01-11T07:03:20.632Z,2.60
2023-01-11T07:05:47.513Z,3.10
2023-01-11T07:08:14.108Z,6.80
2023-01-11T07:10:41.675Z,7.43
2023-01-11T07:13:08.316Z,5.00
2023-01-11T07:15:35.062Z,3.77
2023-01-11T07:18:02.291Z,3.80
2023-01-11T07:20:29.463Z,4.43
2023-01-11T07:23:00.230Z,4.07
2023-01-11T07:25:28.000Z,4.00
2023-01-11T07:28:02.792Z,2.77
2023-01-11T07:30:31.086Z,4.63
2023-01-11T07:32:58.893Z,3.40
2023-01-11T07:35:28.109Z,4.40
2023-01-11T07:37:55.565Z,3.10
2023-01-11T07:40:22.192Z,6.40
2023-01-11T07:43:08.832Z,7.70
2023-01-11T07:45:45.262Z,5.20
2023-01-11T07:48:12.521Z,4.53
2023-01-11T07:50:41.239Z,3.83
2023-01-11T07:53:09.754Z,6.53
2023-01-11T07:55:37.793Z,3.13
2023-01-11T07:58:04.451Z,3.50
2023-01-11T08:00:31.109Z,3.83
2023-01-11T08:02:58.137Z,3.50
2023-01-11T08:05:24.995Z,4.40
2023-01-11T08:07:51.611Z,3.57
2023-01-11T08:10:18.300Z,4.83
2023-01-11T08:13:05.031Z,5.57
2023-01-11T08:15:32.713Z,4.10
2023-01-11T08:17:59.607Z,4.47
2023-01-11T08:20:27.148Z,4.17
2023-01-11T08:22:54.006Z,5.40
2023-01-11T08:25:20.898Z,3.80
2023-01-11T08:27:47.757Z,4.53
2023-01-11T08:30:14.715Z,6.00
2023-01-11T08:32:41.377Z,4.03
2023-01-11T08:35:08.310Z,4.63
2023-01-11T08:37:34.963Z,5.70
2023-01-11T08:40:01.606Z,3.77
2023-01-11T08:42:28.281Z,3.83
2023-01-11T08:44:55.549Z,4.63
2023-01-11T08:47:22.480Z,4.57
2023-01-11T08:49:49.116Z,5.00
2023-01-11T08:52:15.713Z,4.43
2023-01-11T08:54:42.434Z,4.60
2023-01-11T08:57:09.809Z,4.13
2023-01-11T08:59:36.483Z,3.80
2023-01-11T09:02:04.912Z,3.90
2023-01-11T09:04:32.050Z,4.77
2023-01-11T09:06:58.672Z,5.10
2023-01-11T09:09:25.448Z,4.77
2023-01-11T09:11:55.025Z,7.20
2023-01-11T09:14:22.764Z,3.50
2023-01-11T09:16:49.384Z,6.77
2023-01-11T09:19:15.984Z,6.07
2023-01-11T09:21:43.395Z,5.57
2023-01-11T09:24:09.980Z,6.27
2023-01-11T09:26:38.014Z,5.53
2023-01-11T09:29:05.266Z,5.07
2023-01-11T09:31:32.105Z,5.60
2023-01-11T09:33:58.802Z,5.23
2023-01-11T09:36:27.817Z,5.03
2023-01-11T09:38:57.400Z,6.73
2023-01-11T09:42:01.194Z,5.53
2023-01-11T09:44:32.586Z,4.60
2023-01-11T09:47:19.696Z,6.53
2023-01-11T09:49:54.516Z,5.77
2023-01-11T09:52:28.746Z,5.50
2023-01-11T09:55:01.320Z,5.30
2023-01-11T09:57:50.343Z,4.57
2023-01-11T10:00:33.630Z,3.90
2023-01-11T10:03:45.021Z,4.13
2023-01-11T10:06:11.599Z,10.57
2023-01-11T10:18:34.080Z,4.60
2023-01-11T10:18:41.879Z,5.60
2023-01-11T10:21:13.407Z,7.33
2023-01-11T10:23:56.001Z,4.87
2023-01-11T10:26:28.751Z,4.97
2023-01-11T10:29:16.802Z,5.80
2023-01-11T10:32:03.311Z,6.37
2023-01-11T10:34:53.173Z,5.60
2023-01-11T10:37:42.021Z,5.17
2023-01-11T10:40:30.372Z,5.07
2023-01-11T10:43:03.433Z,4.53
2023-01-11T10:45:37.538Z,8.57
2023-01-11T10:48:10.150Z,4.43
2023-01-11T10:50:42.043Z,16.43
2023-01-11T10:53:40.722Z,32.57
2023-01-11T10:57:02.535Z,5.67
2023-01-11T11:00:17.529Z,4.97
2023-01-11T11:03:11.137Z,4.10
2023-01-11T11:05:37.733Z,5.17
2023-01-11T11:08:46.667Z,8.73
2023-01-11T11:11:22.391Z,3.47
2023-01-11T11:14:37.496Z,14.30
2023-01-11T11:17:22.610Z,5.15
2023-01-11T11:19:49.492Z,4.73
2023-01-11T11:22:16.298Z,5.40
2023-01-11T11:24:49.797Z,4.07
2023-01-11T11:27:21.387Z,3.55
2023-01-11T11:29:55.901Z,6.37
2023-01-11T11:32:28.489Z,4.67
2023-01-11T11:34:55.447Z,4.60
2023-01-11T11:37:33.535Z,4.43
2023-01-11T11:40:00.359Z,5.83
2023-01-11T11:42:27.238Z,5.70
2023-01-11T11:45:09.079Z,5.20
2023-01-11T11:47:36.612Z,3.53
2023-01-11T11:50:27.339Z,5.43
2023-01-11T11:53:04.832Z,3.80
2023-01-11T11:55:33.798Z,5.60
2023-01-11T11:58:05.283Z,4.53
2023-01-11T12:00:41.592Z,4.10
2023-01-11T12:03:17.518Z,3.03
2023-01-11T12:05:52.807Z,3.57
2023-01-11T12:08:20.106Z,4.90
2023-01-11T12:10:53.974Z,6.17
2023-01-11T12:13:33.032Z,4.22
2023-01-11T12:16:26.662Z,5.03
2023-01-11T12:18:56.355Z,5.77
2023-01-11T12:21:25.529Z,4.30
2023-01-11T12:24:09.033Z,4.47
2023-01-11T12:27:08.073Z,4.57
2023-01-11T12:30:00.569Z,4.60
2023-01-11T12:33:07.179Z,5.57
2023-01-11T12:35:54.161Z,3.60
2023-01-11T12:38:32.877Z,6.50
2023-01-11T12:41:20.935Z,6.53
2023-01-11T12:43:58.178Z,5.57
2023-01-11T12:46:54.512Z,5.30
2023-01-11T12:49:49.045Z,7.23
2023-01-11T12:52:35.881Z,4.50
2023-01-11T12:55:26.315Z,5.47
2023-01-11T12:58:00.400Z,5.37
2023-01-11T13:00:37.758Z,5.07
2023-01-11T13:03:43.560Z,3.87
2023-01-11T13:06:15.111Z,5.10
2023-01-11T13:08:53.197Z,3.20
2023-01-11T13:11:53.799Z,4.60
2023-01-11T13:14:39.442Z,3.30
2023-01-11T13:17:24.857Z,5.10
2023-01-11T13:20:02.740Z,2.30
2023-01-11T13:22:33.810Z,2.57
2023-01-11T13:25:03.421Z,3.07
2023-01-11T13:27:31.886Z,2.67
2023-01-11T13:30:00.948Z,2.67
2023-01-11T13:32:31.106Z,3.67
2023-01-11T13:35:03.162Z,2.70
2023-01-11T13:37:34.447Z,2.47
2023-01-11T13:40:18.191Z,2.20
2023-01-11T13:42:51.341Z,2.42
2023-01-11T13:45:27.707Z,3.97
2023-01-11T13:47:56.998Z,2.30
2023-01-11T13:50:33.471Z,2.17
2023-01-11T13:53:18.553Z,2.37
2023-01-11T13:56:03.230Z,2.40
2023-01-11T13:58:44.527Z,2.07
2023-01-11T14:01:14.502Z,3.93
2023-01-11T14:03:54.096Z,2.63
2023-01-11T14:06:42.447Z,2.40
2023-01-11T14:09:26.002Z,1.90
2023-01-11T14:12:01.901Z,3.17
2023-01-11T14:14:43.972Z,4.73
2023-01-11T14:17:17.165Z,2.40
2023-01-11T14:19:53.726Z,2.07
2023-01-11T14:23:10.663Z,1.80
2023-01-11T14:25:53.140Z,2.30
2023-01-11T14:28:35.000Z,2.40
2023-01-11T14:31:24.882Z,6.43
2023-01-11T14:34:10.942Z,4.20
2023-01-11T14:36:59.297Z,2.10
2023-01-11T14:39:35.881Z,2.83
2023-01-11T14:42:31.111Z,2.40
2023-01-11T14:45:16.788Z,1.60
2023-01-11T14:47:59.855Z,2.00
2023-01-11T14:50:32.372Z,1.40
2023-01-11T14:53:00.988Z,1.40
2023-01-11T14:55:30.065Z,2.83
2023-01-11T14:57:56.648Z,2.53
2023-01-11T15:00:23.168Z,1.97
2023-01-11T15:02:59.766Z,2.20
2023-01-11T15:05:29.594Z,4.20
2023-01-11T15:08:14.459Z,3.13
2023-01-11T15:10:58.656Z,3.00
2023-01-11T15:13:28.279Z,1.92
2023-01-11T15:16:27.550Z,2.77
2023-01-11T15:18:54.912Z,2.53
2023-01-11T15:21:24.163Z,3.30
2023-01-11T15:23:56.912Z,2.67
2023-01-11T15:26:25.045Z,4.43
2023-01-11T15:28:54.044Z,3.17
2023-01-11T15:31:37.527Z,3.20
2023-01-11T15:34:43.969Z,4.03
2023-01-11T15:37:38.395Z,10.63
2023-01-11T15:40:05.241Z,8.32
2023-01-11T15:42:47.999Z,5.87
2023-01-11T15:46:11.323Z,3.93
2023-01-11T15:49:05.877Z,2.43
2023-01-11T15:52:14.098Z,4.47
2023-01-11T15:55:14.740Z,4.53
2023-01-11T15:58:18.842Z,4.83
2023-01-11T16:01:21.685Z,4.20
2023-01-11T16:03:54.221Z,3.80
2023-01-11T16:06:30.144Z,3.93
2023-01-11T16:09:05.901Z,3.10
2023-01-11T16:12:07.695Z,3.13
2023-01-11T16:15:12.810Z,4.70
2023-01-11T16:17:42.776Z,5.55
2023-01-11T16:20:26.546Z,4.93
2023-01-11T16:22:58.937Z,3.67
2023-01-11T16:25:29.401Z,4.03
2023-01-11T16:27:58.435Z,4.07
2023-01-11T16:30:26.466Z,3.73
2023-01-11T16:32:53.708Z,4.47
2023-01-11T16:35:24.897Z,6.70
2023-01-11T16:37:54.210Z,8.10
2023-01-11T16:40:37.140Z,8.87
2023-01-11T16:43:11.655Z,6.77
2023-01-11T16:45:50.356Z,6.77
2023-01-11T16:48:24.983Z,4.23
2023-01-11T16:51:07.332Z,3.50
2023-01-11T16:53:36.139Z,3.67
2023-01-11T16:56:08.365Z,4.80
2023-01-11T16:58:36.658Z,4.57
2023-01-11T17:01:14.126Z,4.43
2023-01-11T17:03:46.886Z,3.80
2023-01-11T17:06:13.451Z,3.93
2023-01-11T17:08:56.916Z,6.70
2023-01-11T17:11:31.847Z,4.30
2023-01-11T17:14:40.693Z,4.37
2023-01-11T17:17:10.003Z,5.60
2023-01-11T17:19:43.191Z,5.53
2023-01-11T17:22:19.150Z,5.43
2023-01-11T17:25:01.324Z,5.60
2023-01-11T17:27:30.687Z,5.63
2023-01-11T17:29:58.285Z,7.13
2023-01-11T17:32:59.042Z,6.83
2023-01-11T17:35:34.746Z,8.00
2023-01-11T17:38:08.611Z,6.73
2023-01-11T17:40:38.456Z,7.07
2023-01-11T17:43:38.522Z,11.00
2023-01-11T17:46:05.850Z,7.53
2023-01-11T17:48:33.070Z,8.17
2023-01-11T17:51:01.199Z,6.63
2023-01-11T17:53:28.653Z,10.03
2023-01-11T17:55:56.924Z,8.00
2023-01-11T17:58:28.593Z,7.13
2023-01-11T18:01:04.840Z,6.57
2023-01-11T18:03:39.600Z,7.87
2023-01-11T18:06:23.943Z,7.50
2023-01-11T18:08:53.849Z,7.63
2023-01-11T18:11:23.332Z,8.93
2023-01-11T18:13:54.401Z,12.87
2023-01-11T18:16:22.342Z,19.03
2023-01-11T18:18:50.948Z,16.00
2023-01-11T18:21:26.611Z,19.03
2023-01-11T18:24:21.476Z,16.53
2023-01-11T18:29:36.834Z,10.67
2023-01-11T18:32:04.595Z,8.00
2023-01-11T18:34:32.087Z,8.60
2023-01-11T18:36:59.765Z,9.37
2023-01-11T18:39:28.452Z,9.00
2023-01-11T18:42:10.359Z,9.80
2023-01-11T18:44:42.215Z,9.63
2023-01-11T18:47:29.713Z,8.33
2023-01-11T18:49:57.292Z,8.17
2023-01-11T18:52:27.615Z,12.07
2023-01-11T18:54:55.679Z,10.33
2023-01-11T18:57:23.653Z,12.67
2023-01-11T18:59:54.319Z,13.17
2023-01-11T19:02:24.192Z,13.40
2023-01-11T19:04:51.870Z,13.17
2023-01-11T19:07:18.676Z,15.90
2023-01-11T19:09:45.539Z,12.37
2023-01-11T19:12:13.222Z,11.70
2023-01-11T19:14:43.385Z,14.13
2023-01-11T19:17:11.021Z,12.77
2023-01-11T19:19:37.745Z,11.30
2023-01-11T19:22:04.700Z,12.30
2023-01-11T19:24:31.836Z,11.77
2023-01-11T19:26:58.573Z,10.10
2023-01-11T19:29:25.486Z,14.13
2023-01-11T19:31:53.388Z,9.17
2023-01-11T19:34:20.301Z,10.70
2023-01-11T19:36:47.239Z,10.60
2023-01-11T19:39:13.995Z,11.47
2023-01-11T19:41:57.991Z,10.50
2023-01-11T19:44:26.944Z,8.85
2023-01-11T19:47:09.629Z,12.03
2023-01-11T19:49:36.943Z,10.70
2023-01-11T19:52:03.645Z,9.63
2023-01-11T19:54:30.347Z,9.87
2023-01-11T19:56:57.010Z,12.73
2023-01-11T19:59:23.645Z,10.70
2023-01-11T20:01:50.317Z,15.37
2023-01-11T20:04:17.274Z,9.97
2023-01-11T20:06:51.763Z,11.97
2023-01-11T20:09:19.773Z,14.83
2023-01-11T20:11:49.053Z,14.33
2023-01-11T20:14:16.916Z,12.00
2023-01-11T20:16:43.697Z,13.13
2023-01-11T20:19:10.695Z,15.13
2023-01-11T20:21:37.510Z,12.93
2023-01-11T20:24:04.705Z,12.83
2023-01-11T20:26:34.072Z,12.63
2023-01-11T20:29:01.210Z,17.67
2023-01-11T20:31:31.648Z,12.73
2023-01-11T20:34:05.678Z,13.17
2023-01-11T20:36:32.404Z,16.58
2023-01-11T20:38:59.299Z,12.00
2023-01-11T20:41:46.127Z,15.70
2023-01-11T20:44:22.137Z,13.00
2023-01-11T20:46:48.910Z,13.73
2023-01-11T20:49:16.562Z,11.63
2023-01-11T20:51:44.170Z,13.53
2023-01-11T20:54:11.269Z,11.80
2023-01-11T20:56:38.940Z,11.93
2023-01-11T20:59:07.137Z,10.20
2023-01-11T21:01:33.955Z,14.60
2023-01-11T21:04:03.175Z,13.33
2023-01-11T21:06:35.951Z,9.03
2023-01-11T21:09:03.812Z,9.63
2023-01-11T21:11:31.419Z,15.17
2023-01-11T21:14:01.475Z,14.50
2023-01-11T21:16:29.338Z,14.50
2023-01-11T21:19:01.486Z,14.40
2023-01-11T21:21:29.806Z,15.17
2023-01-11T21:23:58.952Z,15.73
2023-01-11T21:26:26.617Z,14.20
2023-01-11T21:28:55.732Z,12.13
2023-01-11T21:31:22.939Z,12.00
2023-01-11T21:33:50.076Z,12.77
2023-01-11T21:36:23.043Z,18.50
2023-01-11T21:38:56.055Z,14.00
2023-01-11T21:41:49.731Z,13.13
2023-01-11T21:44:18.710Z,11.53
2023-01-11T21:46:46.012Z,14.23
2023-01-11T21:49:13.289Z,9.77
2023-01-11T21:51:43.268Z,11.20
2023-01-11T21:54:20.476Z,13.07
2023-01-11T21:56:49.952Z,13.40
2023-01-11T21:59:23.681Z,10.80
2023-01-11T22:01:50.436Z,14.10
2023-01-11T22:04:19.174Z,15.27
2023-01-11T22:06:53.165Z,12.23
2023-01-11T22:09:20.546Z,13.45
2023-01-11T22:11:47.266Z,13.47
2023-01-11T22:14:14.702Z,13.77
2023-01-11T22:16:44.245Z,12.70
2023-01-11T22:19:11.918Z,13.03
2023-01-11T22:21:38.617Z,10.67
2023-01-11T22:24:10.351Z,12.83
2023-01-11T22:26:40.706Z,13.80
2023-01-11T22:29:20.255Z,13.87
2023-01-11T22:31:54.857Z,14.40
2023-01-11T22:34:22.379Z,10.37
2023-01-11T22:36:49.282Z,10.47
2023-01-11T22:39:16.691Z,10.60
2023-01-11T22:41:45.609Z,10.70
2023-01-11T22:44:15.233Z,12.90
2023-01-11T22:46:42.277Z,11.77
2023-01-11T22:49:14.836Z,12.80
2023-01-11T22:51:43.042Z,10.03
2023-01-11T22:54:10.894Z,12.47
2023-01-11T22:56:39.773Z,13.37
2023-01-11T22:59:09.327Z,12.00
2023-01-11T23:01:38.636Z,15.33
2023-01-11T23:04:10.409Z,9.67
2023-01-11T23:06:40.302Z,10.27
2023-01-11T23:09:17.528Z,13.63
2023-01-11T23:12:03.168Z,11.87
2023-01-11T23:14:31.035Z,11.23
2023-01-11T23:17:11.720Z,11.30
2023-01-11T23:19:43.795Z,12.20
2023-01-11T23:22:13.272Z,11.53
2023-01-11T23:24:45.501Z,11.73
2023-01-11T23:27:12.186Z,14.33
2023-01-11T23:29:39.161Z,15.57
2023-01-11T23:32:05.960Z,21.53
2023-01-11T23:34:32.724Z,11.83
2023-01-11T23:37:02.379Z,13.50
2023-01-11T23:39:30.696Z,15.20
2023-01-11T23:42:15.978Z,18.33
2023-01-11T23:44:46.980Z,14.60
2023-01-11T23:47:26.708Z,12.17
2023-01-11T23:49:58.410Z,13.20
2023-01-11T23:52:26.836Z,12.20
2023-01-11T23:54:54.212Z,13.13
2023-01-11T23:57:21.732Z,17.23
2023-01-11T23:59:48.608Z,13.83
